CheckWX is a tool to help pilots better visualize weather data.  It is not intended as a substitute for an official pre-flight weather briefing.

16:59:18 UTC

KCRG TAF
Jacksonville Executive at Craig Airport
Jacksonville, Florida, USA
KCRG 191120Z 1912/2012 07008KT P6SM SCT035 SCT100 FM191400 06013G19KT P6SM VCSH BKN035 BKN250 FM191900 06018G25KT P6SM VCSH BKN050 BKN250 FM200000 07008KT P6SM BKN250

Sep-19@
12:00 UTC

Sep-19 @ 12:00 UTC

Sep-19@
14:00 UTC

Sep-19 @ 14:00 UTC

KCRG 191120Z 1912/2012 07008KT P6SM SCT035 SCT100

Expired

Wind
  • 070° at 8 KTS
Cloud Levels
  • Scattered at 3,500' AGL
  • Scattered at 10,000' AGL

Sep-19@
14:00 UTC

Sep-19 @ 14:00 UTC

Sep-19@
19:00 UTC

Sep-19 @ 19:00 UTC

FM191400 06013G19KT P6SM VCSH BKN035 BKN250

From

From Standard forecast or significant change

Wind
  • 060° at 13 KTS
  • {Gusting to 19 KTS
Cloud Levels
  • Broken at 3,500' AGL
  • Broken at 25,000' AGL

Sep-19@
19:00 UTC

Sep-19 @ 19:00 UTC

Sep-20@
00:00 UTC

Sep-20 @ 00:00 UTC

FM191900 06018G25KT P6SM VCSH BKN050 BKN250

From

From Standard forecast or significant change

Wind
  • 060° at 18 KTS
  • {Gusting to 25 KTS
Cloud Levels
  • Broken at 5,000' AGL
  • Broken at 25,000' AGL

Sep-20@
00:00 UTC

Sep-20 @ 00:00 UTC

Sep-20@
12:00 UTC

Sep-20 @ 12:00 UTC

FM200000 07008KT P6SM BKN250

From

From Standard forecast or significant change

Wind
  • 070° at 8 KTS
Cloud Levels
  • Broken at 25,000' AGL